createdAt,value
2022-10-11T00:04:10.866Z,11.33
2022-10-11T00:09:13.108Z,11.13
2022-10-11T00:14:16.606Z,10.94
2022-10-11T00:19:18.864Z,10.86
2022-10-11T00:24:20.905Z,10.68
2022-10-11T00:29:24.281Z,10.63
2022-10-11T00:34:26.245Z,10.29
2022-10-11T00:39:28.331Z,10.26
2022-10-11T00:44:33.237Z,10.12
2022-10-11T00:49:37.508Z,9.92
2022-10-11T00:54:43.421Z,9.70
2022-10-11T00:59:50.618Z,9.69
2022-10-11T01:05:11.339Z,9.51
2022-10-11T01:10:15.648Z,9.30
2022-10-11T01:15:25.545Z,9.09
2022-10-11T01:20:37.386Z,8.87
2022-10-11T01:25:51.899Z,8.69
2022-10-11T01:31:01.069Z,8.63
2022-10-11T01:36:11.628Z,8.57
2022-10-11T01:41:19.104Z,8.62
2022-10-11T01:46:24.157Z,8.66
2022-10-11T01:51:29.302Z,8.61
2022-10-11T01:56:47.902Z,8.41
2022-10-11T02:01:59.548Z,8.43
2022-10-11T02:07:07.504Z,8.35
2022-10-11T02:12:12.520Z,8.27
2022-10-11T02:17:18.553Z,8.19
2022-10-11T02:22:24.809Z,8.29
2022-10-11T02:27:30.396Z,8.33
2022-10-11T02:32:36.172Z,8.27
2022-10-11T02:37:43.025Z,8.31
2022-10-11T02:42:53.841Z,8.25
2022-10-11T02:47:58.404Z,8.07
2022-10-11T02:53:00.304Z,8.14
2022-10-11T02:58:02.978Z,8.16
2022-10-11T03:03:05.949Z,8.12
2022-10-11T03:08:08.399Z,8.04
2022-10-11T03:13:12.835Z,8.05
2022-10-11T03:18:18.186Z,8.12
2022-10-11T03:23:20.190Z,8.06
2022-10-11T03:28:22.499Z,8.02
2022-10-11T03:33:25.827Z,7.97
2022-10-11T03:38:27.966Z,8.18
2022-10-11T03:43:29.644Z,8.31
2022-10-11T03:48:33.441Z,8.27
2022-10-11T03:53:35.599Z,8.22
2022-10-11T03:58:37.892Z,8.24
2022-10-11T04:03:41.421Z,8.21
2022-10-11T04:08:43.116Z,8.16
2022-10-11T04:13:46.226Z,8.21
2022-10-11T04:18:49.524Z,8.34
2022-10-11T04:23:51.599Z,8.26
2022-10-11T04:28:53.650Z,8.35
2022-10-11T04:33:56.697Z,8.25
2022-10-11T04:38:58.982Z,8.16
2022-10-11T04:44:01.412Z,8.21
2022-10-11T04:49:04.430Z,8.32
2022-10-11T04:54:06.087Z,8.24
2022-10-11T04:59:08.007Z,8.16
2022-10-11T05:04:11.030Z,8.28
2022-10-11T05:09:13.215Z,8.30
2022-10-11T05:14:14.968Z,8.26
2022-10-11T05:19:18.366Z,8.30
2022-10-11T05:24:20.409Z,8.21
2022-10-11T05:29:22.079Z,8.27
2022-10-11T05:34:25.189Z,8.07
2022-10-11T05:39:26.957Z,8.14
2022-10-11T05:44:29.203Z,8.12
2022-10-11T05:49:32.405Z,8.24
2022-10-11T05:54:34.323Z,8.15
2022-10-11T05:59:36.497Z,8.22
2022-10-11T06:04:39.969Z,8.09
2022-10-11T06:09:41.617Z,8.24
2022-10-11T06:14:43.320Z,8.29
2022-10-11T06:19:57.599Z,8.39
2022-10-11T06:24:59.775Z,8.40
2022-10-11T06:30:01.942Z,8.55
2022-10-11T06:35:06.522Z,8.65
2022-10-11T06:40:09.090Z,8.83
2022-10-11T06:45:11.119Z,8.95
2022-10-11T06:50:14.410Z,9.09
2022-10-11T06:55:16.500Z,9.20
2022-10-11T07:00:18.886Z,9.27
2022-10-11T07:05:22.274Z,9.36
2022-10-11T07:10:24.256Z,9.59
2022-10-11T07:15:26.409Z,9.68
2022-10-11T07:20:29.535Z,9.77
2022-10-11T07:25:31.599Z,9.95
2022-10-11T07:30:33.289Z,9.99
2022-10-11T07:35:36.746Z,10.03
2022-10-11T07:40:42.384Z,10.21
2022-10-11T07:45:44.845Z,10.36
2022-10-11T07:50:48.330Z,10.45
2022-10-11T07:55:49.945Z,10.61
2022-10-11T08:00:53.441Z,10.72
2022-10-11T08:06:00.155Z,10.98
2022-10-11T08:11:02.027Z,11.05
2022-10-11T08:16:10.158Z,11.27
2022-10-11T08:21:15.790Z,11.31
2022-10-11T08:26:17.666Z,11.38
2022-10-11T08:31:19.659Z,11.54
2022-10-11T08:36:23.373Z,11.79
2022-10-11T08:41:34.896Z,11.90
2022-10-11T08:46:39.005Z,12.05
2022-10-11T08:51:47.525Z,12.40
2022-10-11T08:56:50.641Z,12.51
2022-10-11T09:01:58.888Z,12.62
2022-10-11T09:07:07.363Z,12.84
2022-10-11T09:12:18.708Z,13.09
2022-10-11T09:17:36.154Z,13.20
2022-10-11T09:22:49.898Z,13.30
2022-10-11T09:28:05.443Z,13.65
2022-10-11T09:33:17.171Z,13.98
2022-10-11T09:38:31.402Z,14.35
2022-10-11T09:43:33.279Z,14.54
2022-10-11T09:48:40.311Z,16.84
2022-10-11T09:54:06.658Z,22.08
2022-10-11T09:59:25.944Z,22.70
2022-10-11T10:04:28.121Z,23.86
2022-10-11T10:09:31.639Z,23.82
2022-10-11T10:14:33.799Z,24.45
2022-10-11T10:19:45.090Z,24.26
2022-10-11T10:24:50.165Z,24.52
2022-10-11T10:30:19.359Z,24.29
2022-10-11T10:35:38.308Z,26.47
2022-10-11T10:40:45.625Z,25.59
2022-10-11T10:46:09.884Z,25.52
2022-10-11T10:51:21.973Z,21.73
2022-10-11T10:56:31.559Z,25.16
2022-10-11T11:01:38.031Z,23.84
2022-10-11T11:06:48.980Z,22.55
2022-10-11T11:12:03.484Z,20.31
2022-10-11T11:17:15.018Z,18.36
2022-10-11T11:22:32.484Z,17.93
2022-10-11T11:27:49.927Z,17.16
2022-10-11T11:33:04.030Z,17.88
2022-10-11T11:38:14.871Z,17.79
2022-10-11T11:43:25.150Z,17.76
2022-10-11T11:48:27.382Z,17.07
2022-10-11T11:53:43.842Z,17.49
2022-10-11T11:58:53.664Z,17.32
2022-10-11T12:04:01.434Z,17.47
2022-10-11T12:09:08.138Z,17.66
2022-10-11T12:14:29.637Z,17.94
2022-10-11T12:19:31.850Z,18.29
2022-10-11T12:24:55.818Z,18.77
2022-10-11T12:29:59.212Z,17.94
2022-10-11T12:35:39.626Z,17.74
2022-10-11T12:40:43.090Z,17.48
2022-10-11T12:45:46.741Z,17.82
2022-10-11T12:51:02.953Z,17.96
2022-10-11T12:56:11.521Z,18.06
2022-10-11T13:01:25.520Z,18.04
2022-10-11T13:06:30.158Z,17.08
2022-10-11T13:11:35.776Z,16.19
2022-10-11T13:16:56.373Z,16.10
2022-10-11T13:22:00.555Z,16.18
2022-10-11T13:27:03.169Z,15.92
2022-10-11T13:32:13.539Z,16.09
2022-10-11T13:37:18.925Z,16.10
2022-10-11T13:42:25.974Z,15.93
2022-10-11T13:47:31.705Z,16.20
2022-10-11T13:52:34.366Z,16.40
2022-10-11T13:57:39.746Z,16.29
2022-10-11T14:02:48.337Z,16.13
2022-10-11T14:07:50.127Z,15.99
2022-10-11T14:13:21.025Z,15.84
2022-10-11T14:18:43.214Z,15.27
2022-10-11T14:23:45.009Z,15.10
2022-10-11T14:28:51.875Z,15.16
2022-10-11T14:33:56.046Z,15.74
2022-10-11T14:38:57.750Z,16.11
2022-10-11T14:43:59.356Z,16.04
2022-10-11T14:49:02.330Z,16.08
2022-10-11T14:54:04.735Z,15.65
2022-10-11T14:59:07.108Z,15.54
2022-10-11T15:04:10.626Z,15.33
2022-10-11T15:09:12.800Z,15.26
2022-10-11T15:14:14.711Z,15.20
2022-10-11T15:19:20.788Z,15.07
2022-10-11T15:24:22.743Z,15.03
2022-10-11T15:29:24.756Z,14.68
2022-10-11T15:34:28.579Z,14.43
2022-10-11T15:39:31.452Z,14.28
2022-10-11T15:44:34.522Z,13.97
2022-10-11T15:49:38.758Z,13.74
2022-10-11T15:54:41.315Z,13.38
2022-10-11T15:59:43.175Z,13.01
2022-10-11T16:04:47.195Z,12.78
2022-10-11T16:09:49.660Z,12.42
2022-10-11T16:14:52.307Z,12.11
2022-10-11T16:19:55.636Z,11.75
2022-10-11T16:24:57.913Z,11.34
2022-10-11T16:30:00.475Z,11.05
2022-10-11T16:35:04.426Z,10.71
2022-10-11T16:40:08.849Z,10.44
2022-10-11T16:45:11.205Z,10.21
2022-10-11T16:50:14.505Z,9.97
2022-10-11T16:55:16.683Z,9.77
2022-10-11T17:00:19.060Z,9.64
2022-10-11T17:05:22.505Z,9.44
2022-10-11T17:10:24.587Z,9.28
2022-10-11T17:15:26.760Z,9.15
2022-10-11T17:20:30.380Z,9.02
2022-10-11T17:25:32.289Z,8.88
2022-10-11T17:30:34.239Z,8.77
2022-10-11T17:35:37.234Z,8.59
2022-10-11T17:40:38.982Z,8.44
2022-10-11T17:45:40.825Z,8.27
2022-10-11T17:50:49.667Z,8.21
2022-10-11T17:55:52.595Z,8.06
2022-10-11T18:00:54.326Z,7.92
2022-10-11T18:05:57.487Z,7.89
2022-10-11T18:10:59.327Z,7.80
2022-10-11T18:16:01.467Z,7.71
2022-10-11T18:21:05.060Z,7.56
2022-10-11T18:26:11.529Z,7.50
2022-10-11T18:31:16.454Z,7.37
2022-10-11T18:36:22.193Z,7.18
2022-10-11T18:41:26.925Z,7.11
2022-10-11T18:46:29.667Z,7.05
2022-10-11T18:51:35.405Z,6.93
2022-10-11T18:56:38.210Z,6.74
2022-10-11T19:01:43.205Z,6.68
2022-10-11T19:06:48.653Z,6.61
2022-10-11T19:11:51.937Z,6.53
2022-10-11T19:16:56.153Z,6.32
2022-10-11T19:22:00.885Z,6.34
2022-10-11T19:27:03.224Z,6.27
2022-10-11T19:32:05.926Z,6.17
2022-10-11T19:37:10.328Z,6.05
2022-10-11T19:42:12.559Z,5.89
2022-10-11T19:47:15.203Z,5.74
2022-10-11T19:52:20.403Z,5.73
2022-10-11T19:57:22.531Z,5.69
2022-10-11T20:02:24.631Z,5.61
2022-10-11T20:07:28.231Z,5.50
2022-10-11T20:12:31.163Z,5.73
2022-10-11T20:17:34.012Z,5.98
2022-10-11T20:22:37.917Z,5.95
2022-10-11T20:27:39.818Z,6.22
2022-10-11T20:32:41.816Z,6.36
2022-10-11T20:37:44.829Z,6.40
2022-10-11T20:42:46.683Z,6.38
2022-10-11T20:47:48.375Z,6.30
2022-10-11T20:52:51.379Z,6.05
2022-10-11T20:57:53.557Z,5.93
2022-10-11T21:02:55.333Z,5.81
2022-10-11T21:07:58.284Z,5.89
2022-10-11T21:13:00.529Z,5.84
2022-10-11T21:18:02.435Z,5.63
2022-10-11T21:23:05.649Z,5.51
2022-10-11T21:28:07.958Z,5.47
2022-10-11T21:33:09.605Z,5.40
2022-10-11T21:38:12.673Z,5.33
2022-10-11T21:43:14.616Z,5.28
2022-10-11T21:48:16.511Z,5.13
2022-10-11T21:53:19.475Z,4.96
2022-10-11T21:58:21.400Z,4.83
2022-10-11T22:03:23.542Z,4.64
2022-10-11T22:08:26.881Z,4.60
2022-10-11T22:13:30.799Z,4.52
2022-10-11T22:18:33.806Z,4.47
2022-10-11T22:23:37.271Z,4.36
2022-10-11T22:28:39.042Z,4.11
2022-10-11T22:33:41.117Z,4.05
2022-10-11T22:38:45.069Z,4.21
2022-10-11T22:43:46.921Z,4.14
2022-10-11T22:48:48.959Z,4.08
2022-10-11T22:53:52.033Z,3.94
2022-10-11T22:58:54.083Z,3.97
2022-10-11T23:03:56.003Z,3.81
2022-10-11T23:08:59.231Z,3.81
2022-10-11T23:14:00.912Z,3.64
2022-10-11T23:19:02.917Z,3.52
2022-10-11T23:24:07.183Z,3.44
2022-10-11T23:29:08.910Z,3.48
2022-10-11T23:34:10.579Z,3.43
2022-10-11T23:39:14.036Z,3.25
2022-10-11T23:44:16.094Z,3.15
2022-10-11T23:49:18.159Z,3.04
2022-10-11T23:54:21.177Z,3.06
2022-10-11T23:59:22.792Z,3.05
